Time;durP1;ratioP1;P1;durP2;ratioP2;P2;SDS_P1;SDS_P2;PMS_P1;PMS_P2;Temp;Humidity;BMP_temperature;BMP_pressure;BME280_temperature;BME280_humidity;BME280_pressure;Samples;Min_cycle;Max_cycle;Signal;HPM_P1;HPM_P2
2021/06/07 00:02:20;;;;;;;15.18;13.68;;;;;;;;;;5030664;28;20256;-83
2021/06/07 00:04:47;;;;;;;15.32;13.73;;;;;;;;;;5030672;28;20202;-83
2021/06/07 00:07:14;;;;;;;13.43;12.13;;;;;;;;;;5032254;28;20210;-83
2021/06/07 00:09:43;;;;;;;15.73;14.10;;;;;;;;;;5031972;28;20203;-83
2021/06/07 00:12:14;;;;;;;15.80;14.20;;;;;;;;;;5031476;28;20566;-83
2021/06/07 00:14:41;;;;;;;15.13;13.55;;;;;;;;;;5031143;28;20206;-83
2021/06/07 00:17:08;;;;;;;13.65;11.65;;;;;;;;;;5030960;28;20599;-83
2021/06/07 00:19:39;;;;;;;16.42;14.73;;;;;;;;;;5031276;28;20198;-83
2021/06/07 00:22:07;;;;;;;16.17;14.50;;;;;;;;;;5031517;28;20513;-83
2021/06/07 00:24:34;;;;;;;18.30;16.33;;;;;;;;;;5031232;28;20202;-83
2021/06/07 00:27:04;;;;;;;15.50;13.90;;;;;;;;;;5031164;28;20264;-83
2021/06/07 00:29:31;;;;;;;15.35;13.73;;;;;;;;;;5031394;28;20205;-83
2021/06/07 00:31:58;;;;;;;14.48;12.85;;;;;;;;;;5030916;28;20202;-83
2021/06/07 00:34:25;;;;;;;13.45;12.23;;;;;;;;;;5030438;28;20730;-83
2021/06/07 00:36:52;;;;;;;14.85;13.35;;;;;;;;;;5030564;28;20280;-83
2021/06/07 00:39:20;;;;;;;14.90;13.38;;;;;;;;;;5030929;28;20249;-83
2021/06/07 00:41:48;;;;;;;14.30;12.73;;;;;;;;;;5031299;28;20645;-84
2021/06/07 00:44:21;;;;;;;15.65;14.02;;;;;;;;;;5031065;28;20206;-83
2021/06/07 00:46:48;;;;;;;14.07;12.68;;;;;;;;;;5031113;28;20225;-83
2021/06/07 00:49:16;;;;;;;14.70;13.15;;;;;;;;;;5031444;28;20575;-83
2021/06/07 00:51:44;;;;;;;16.45;14.05;;;;;;;;;;5031135;28;20202;-83
2021/06/07 00:54:12;;;;;;;16.15;13.43;;;;;;;;;;5031503;28;20183;-83
2021/06/07 00:56:40;;;;;;;16.35;14.18;;;;;;;;;;5030939;28;20230;-83
2021/06/07 00:59:07;;;;;;;15.15;13.55;;;;;;;;;;5031557;28;20194;-83
2021/06/07 01:01:36;;;;;;;15.13;13.57;;;;;;;;;;5031547;28;20206;-83
2021/06/07 01:04:04;;;;;;;14.32;12.93;;;;;;;;;;5030709;28;20579;-83
2021/06/07 01:06:32;;;;;;;15.45;13.85;;;;;;;;;;5030795;28;20218;-83
2021/06/07 01:08:59;;;;;;;15.77;14.00;;;;;;;;;;5030889;28;20199;-83
2021/06/07 01:11:27;;;;;;;15.98;14.25;;;;;;;;;;5031035;28;20205;-83
2021/06/07 01:13:54;;;;;;;16.20;14.57;;;;;;;;;;5030294;28;20204;-83
2021/06/07 01:16:22;;;;;;;15.13;12.80;;;;;;;;;;5033595;28;20229;-83
2021/06/07 01:18:51;;;;;;;14.98;13.38;;;;;;;;;;5035033;28;20202;-83
2021/06/07 01:21:22;;;;;;;18.15;15.32;;;;;;;;;;5035182;28;20205;-82
2021/06/07 01:23:51;;;;;;;16.13;14.45;;;;;;;;;;5034852;28;20260;-83
2021/06/07 01:26:22;;;;;;;15.02;13.55;;;;;;;;;;5034965;28;20230;-83
2021/06/07 01:28:51;;;;;;;16.48;14.73;;;;;;;;;;5034512;28;20231;-83
2021/06/07 01:31:19;;;;;;;16.70;14.40;;;;;;;;;;5034661;28;20205;-83
2021/06/07 01:33:49;;;;;;;17.60;15.07;;;;;;;;;;5033509;28;20229;-83
2021/06/07 01:36:16;;;;;;;15.70;14.10;;;;;;;;;;5034660;28;20341;-83
2021/06/07 01:38:43;;;;;;;16.02;14.32;;;;;;;;;;5035598;28;20248;-83
2021/06/07 01:41:15;;;;;;;16.63;14.93;;;;;;;;;;5034495;28;20202;-83
2021/06/07 01:43:43;;;;;;;17.08;15.25;;;;;;;;;;5034383;28;20208;-83
2021/06/07 01:46:10;;;;;;;19.33;15.00;;;;;;;;;;5034118;28;20631;-83
2021/06/07 01:48:37;;;;;;;16.33;14.63;;;;;;;;;;5034256;28;20665;-83
2021/06/07 01:51:07;;;;;;;17.75;14.48;;;;;;;;;;5034011;28;20673;-83
2021/06/07 01:53:35;;;;;;;18.35;16.08;;;;;;;;;;5033808;28;20751;-83
2021/06/07 01:56:06;;;;;;;18.20;15.70;;;;;;;;;;5034219;28;20300;-83
2021/06/07 01:58:35;;;;;;;15.48;13.88;;;;;;;;;;5034393;28;20210;-83
2021/06/07 02:01:07;;;;;;;18.25;15.07;;;;;;;;;;5034161;28;20198;-83
2021/06/07 02:03:34;;;;;;;17.90;15.98;;;;;;;;;;5033916;28;20552;-83
2021/06/07 02:06:06;;;;;;;17.73;15.88;;;;;;;;;;5034897;28;20229;-83
2021/06/07 02:08:33;;;;;;;17.83;14.73;;;;;;;;;;5034466;28;20595;-83
2021/06/07 02:11:04;;;;;;;17.67;15.52;;;;;;;;;;5033715;28;20212;-83
2021/06/07 02:13:31;;;;;;;16.55;14.68;;;;;;;;;;5032590;28;20225;-83
2021/06/07 02:16:05;;;;;;;17.55;15.57;;;;;;;;;;5033233;28;20658;-83
2021/06/07 02:18:37;;;;;;;17.63;15.88;;;;;;;;;;5033728;28;20225;-83
2021/06/07 02:21:04;;;;;;;17.52;15.68;;;;;;;;;;5034068;28;20275;-83
2021/06/07 02:23:31;;;;;;;17.15;15.35;;;;;;;;;;5033164;28;20664;-83
2021/06/07 02:25:58;;;;;;;18.17;16.33;;;;;;;;;;5032598;28;20226;-83
2021/06/07 02:28:26;;;;;;;18.70;16.63;;;;;;;;;;5033747;28;20285;-83
2021/06/07 02:30:53;;;;;;;18.52;16.25;;;;;;;;;;5033715;28;20208;-83
2021/06/07 02:33:21;;;;;;;28.88;16.67;;;;;;;;;;5033678;28;20202;-84
2021/06/07 02:35:48;;;;;;;23.10;19.05;;;;;;;;;;5033441;28;20700;-83
2021/06/07 02:38:16;;;;;;;19.05;17.00;;;;;;;;;;5034073;28;20574;-83
2021/06/07 02:40:45;;;;;;;19.83;17.58;;;;;;;;;;5033549;28;20225;-83
2021/06/07 02:43:13;;;;;;;18.98;16.98;;;;;;;;;;5034164;28;20199;-83
2021/06/07 02:45:40;;;;;;;20.33;16.42;;;;;;;;;;5033538;28;20276;-84
2021/06/07 02:48:08;;;;;;;23.73;17.75;;;;;;;;;;5033683;28;20210;-83
2021/06/07 02:50:40;;;;;;;20.58;17.13;;;;;;;;;;5033691;28;20694;-83
2021/06/07 02:53:07;;;;;;;18.92;16.90;;;;;;;;;;5033150;28;20244;-83
2021/06/07 02:55:37;;;;;;;21.90;18.10;;;;;;;;;;5033071;28;20236;-83
2021/06/07 02:58:04;;;;;;;20.73;18.52;;;;;;;;;;5033366;28;20625;-83
2021/06/07 03:00:35;;;;;;;20.55;18.40;;;;;;;;;;5033414;28;20735;-82
2021/06/07 03:03:03;;;;;;;20.30;18.20;;;;;;;;;;5032947;28;20293;-83
2021/06/07 03:05:31;;;;;;;20.23;17.80;;;;;;;;;;5032814;28;20265;-83
2021/06/07 03:08:00;;;;;;;23.55;18.92;;;;;;;;;;5032649;28;20731;-83
2021/06/07 03:10:27;;;;;;;21.70;19.40;;;;;;;;;;5033108;28;20198;-83
2021/06/07 03:12:54;;;;;;;19.08;17.08;;;;;;;;;;5032953;28;20202;-83
2021/06/07 03:15:22;;;;;;;20.65;17.60;;;;;;;;;;5032718;28;20610;-83
2021/06/07 03:17:51;;;;;;;19.50;17.40;;;;;;;;;;5032675;28;20696;-83
2021/06/07 03:20:21;;;;;;;20.88;18.00;;;;;;;;;;5032969;28;20206;-84
2021/06/07 03:22:48;;;;;;;20.27;17.40;;;;;;;;;;5033021;28;20214;-83
2021/06/07 03:25:17;;;;;;;20.38;18.13;;;;;;;;;;5033256;28;20272;-83
2021/06/07 03:27:44;;;;;;;20.27;18.27;;;;;;;;;;5033213;28;20217;-83
2021/06/07 03:30:13;;;;;;;19.80;17.70;;;;;;;;;;5032658;28;20263;-83
2021/06/07 03:32:40;;;;;;;20.73;18.52;;;;;;;;;;5032842;28;20707;-83
2021/06/07 03:35:09;;;;;;;19.45;17.45;;;;;;;;;;5031681;28;20241;-83
2021/06/07 03:37:37;;;;;;;21.30;18.63;;;;;;;;;;5031738;28;20525;-83
2021/06/07 03:40:07;;;;;;;21.70;19.50;;;;;;;;;;5032938;28;20213;-83
2021/06/07 03:42:36;;;;;;;21.88;18.25;;;;;;;;;;5033332;28;20209;-83
2021/06/07 03:45:04;;;;;;;21.13;18.88;;;;;;;;;;5031985;28;20279;-83
2021/06/07 03:47:31;;;;;;;19.33;17.33;;;;;;;;;;5031945;28;20206;-83
2021/06/07 03:49:58;;;;;;;21.15;17.48;;;;;;;;;;5032647;28;20203;-84
2021/06/07 03:52:25;;;;;;;19.73;16.73;;;;;;;;;;5031905;28;20734;-83
2021/06/07 03:54:52;;;;;;;22.30;19.15;;;;;;;;;;5031378;28;20569;-83
2021/06/07 03:57:19;;;;;;;20.05;17.95;;;;;;;;;;5031767;28;20218;-83
2021/06/07 03:59:47;;;;;;;19.20;16.80;;;;;;;;;;5032431;28;20252;-83
2021/06/07 04:02:16;;;;;;;24.85;18.95;;;;;;;;;;5032773;28;20209;-83
2021/06/07 04:04:43;;;;;;;20.80;16.92;;;;;;;;;;5032610;28;20202;-83
2021/06/07 04:07:10;;;;;;;22.73;18.67;;;;;;;;;;5032762;28;20202;-83
2021/06/07 04:09:40;;;;;;;20.73;18.30;;;;;;;;;;5031715;28;20210;-83
2021/06/07 04:12:08;;;;;;;22.65;19.15;;;;;;;;;;5032593;28;20634;-83
2021/06/07 04:14:35;;;;;;;18.70;16.80;;;;;;;;;;5031722;28;20660;-83
2021/06/07 04:17:04;;;;;;;20.45;18.35;;;;;;;;;;5031838;28;20241;-83
2021/06/07 04:19:31;;;;;;;18.67;16.27;;;;;;;;;;5031974;28;20206;-83
2021/06/07 04:21:58;;;;;;;17.95;16.15;;;;;;;;;;5032379;28;20203;-83
2021/06/07 04:24:25;;;;;;;22.23;19.77;;;;;;;;;;5032058;28;20202;-83
2021/06/07 04:26:52;;;;;;;19.88;17.83;;;;;;;;;;5031869;28;20725;-83
2021/06/07 04:29:19;;;;;;;20.38;18.27;;;;;;;;;;5032339;28;20252;-83
2021/06/07 04:31:46;;;;;;;20.17;18.00;;;;;;;;;;5035087;28;20220;-83
2021/06/07 04:34:14;;;;;;;25.20;20.90;;;;;;;;;;5033687;28;20593;-83
2021/06/07 04:36:41;;;;;;;20.67;18.40;;;;;;;;;;5032641;28;20313;-83
2021/06/07 04:39:10;;;;;;;20.73;18.50;;;;;;;;;;5032846;28;20622;-83
2021/06/07 04:41:37;;;;;;;21.35;19.10;;;;;;;;;;5032204;28;20240;-83
2021/06/07 04:44:05;;;;;;;22.33;19.67;;;;;;;;;;5032138;28;20204;-83
2021/06/07 04:46:32;;;;;;;21.48;18.90;;;;;;;;;;5032215;28;20221;-83
2021/06/07 04:48:59;;;;;;;19.20;17.02;;;;;;;;;;5031887;28;20583;-83
2021/06/07 04:51:28;;;;;;;21.67;19.35;;;;;;;;;;5032045;28;20202;-83
2021/06/07 04:53:55;;;;;;;21.88;19.73;;;;;;;;;;5031843;28;20232;-83
2021/06/07 04:56:21;;;;;;;20.17;18.13;;;;;;;;;;5036449;28;20234;-83
2021/06/07 04:58:48;;;;;;;21.48;19.15;;;;;;;;;;5032305;28;20646;-83
2021/06/07 05:01:16;;;;;;;19.90;17.98;;;;;;;;;;5033008;28;20206;-83
2021/06/07 05:03:43;;;;;;;19.35;17.08;;;;;;;;;;5032431;28;20252;-82
2021/06/07 05:06:10;;;;;;;21.27;17.35;;;;;;;;;;5032117;28;20222;-82
2021/06/07 05:08:39;;;;;;;21.27;19.00;;;;;;;;;;5031189;28;20202;-83
2021/06/07 05:11:06;;;;;;;19.10;16.50;;;;;;;;;;5032798;28;20229;-83
2021/06/07 05:13:33;;;;;;;20.13;18.08;;;;;;;;;;5033231;28;20206;-83
2021/06/07 05:16:01;;;;;;;20.55;18.45;;;;;;;;;;5033060;28;20242;-83
2021/06/07 05:18:28;;;;;;;20.50;18.35;;;;;;;;;;5033763;28;20272;-83
2021/06/07 05:20:55;;;;;;;20.77;18.48;;;;;;;;;;5032196;28;20205;-83
2021/06/07 05:23:23;;;;;;;18.50;16.60;;;;;;;;;;5031584;28;20182;-83
2021/06/07 05:25:51;;;;;;;20.02;18.08;;;;;;;;;;5032480;28;20226;-84
2021/06/07 05:28:20;;;;;;;19.75;17.75;;;;;;;;;;5032161;28;20260;-83
2021/06/07 05:30:49;;;;;;;20.80;18.70;;;;;;;;;;5031737;28;20206;-84
2021/06/07 05:33:16;;;;;;;18.85;16.98;;;;;;;;;;5032075;28;20198;-83
2021/06/07 05:35:46;;;;;;;19.25;17.33;;;;;;;;;;5031670;28;20226;-83
2021/06/07 05:38:15;;;;;;;19.27;17.30;;;;;;;;;;5032379;28;20224;-83
2021/06/07 05:40:43;;;;;;;19.35;17.38;;;;;;;;;;5031273;28;20202;-82
2021/06/07 05:43:11;;;;;;;20.63;17.67;;;;;;;;;;5031446;28;20332;-83
2021/06/07 05:45:38;;;;;;;20.40;18.35;;;;;;;;;;5030264;28;20238;-82
2021/06/07 05:48:06;;;;;;;18.92;16.92;;;;;;;;;;5031072;28;20205;-82
2021/06/07 05:50:35;;;;;;;19.23;17.23;;;;;;;;;;5031213;28;20661;-82
2021/06/07 05:53:03;;;;;;;20.25;18.15;;;;;;;;;;5031222;28;20218;-83
2021/06/07 05:55:32;;;;;;;21.38;19.10;;;;;;;;;;5030199;28;20253;-82
2021/06/07 05:58:01;;;;;;;19.50;17.48;;;;;;;;;;5031665;28;20223;-83
2021/06/07 06:00:33;;;;;;;18.98;16.98;;;;;;;;;;5031366;28;20577;-83
2021/06/07 06:03:00;;;;;;;19.77;17.70;;;;;;;;;;5034830;28;20207;-83
2021/06/07 06:05:27;;;;;;;20.33;18.33;;;;;;;;;;5034373;28;20218;-83
2021/06/07 06:07:55;;;;;;;19.55;17.60;;;;;;;;;;5034432;28;20202;-82
2021/06/07 06:10:22;;;;;;;17.38;15.70;;;;;;;;;;5034455;28;20213;-82
2021/06/07 06:12:49;;;;;;;20.52;18.35;;;;;;;;;;5034977;28;20198;-83
2021/06/07 06:15:19;;;;;;;19.50;17.23;;;;;;;;;;5033543;28;20241;-82
2021/06/07 06:17:48;;;;;;;16.98;15.27;;;;;;;;;;5034857;28;20226;-83
2021/06/07 06:20:16;;;;;;;18.98;17.17;;;;;;;;;;5034602;28;20597;-82
2021/06/07 06:22:44;;;;;;;17.67;15.82;;;;;;;;;;5035493;28;20206;-82
2021/06/07 06:25:12;;;;;;;17.13;15.43;;;;;;;;;;5034139;28;20221;-83
2021/06/07 06:27:40;;;;;;;18.17;16.33;;;;;;;;;;5034599;28;20198;-83
2021/06/07 06:30:10;;;;;;;16.60;14.90;;;;;;;;;;5034343;28;20202;-82
2021/06/07 06:32:38;;;;;;;17.27;14.68;;;;;;;;;;5034385;28;20206;-83
2021/06/07 06:35:08;;;;;;;15.85;14.35;;;;;;;;;;5034097;28;20241;-82
2021/06/07 06:37:36;;;;;;;17.65;15.85;;;;;;;;;;5034377;28;20198;-82
2021/06/07 06:40:04;;;;;;;18.20;15.50;;;;;;;;;;5033951;28;20281;-82
2021/06/07 06:42:31;;;;;;;19.63;14.65;;;;;;;;;;5034613;28;20229;-82
2021/06/07 06:44:58;;;;;;;17.95;16.25;;;;;;;;;;5033639;28;20234;-83
2021/06/07 06:47:24;;;;;;;17.15;15.02;;;;;;;;;;5034213;28;20613;-82
2021/06/07 06:49:51;;;;;;;15.65;14.23;;;;;;;;;;5033777;28;20591;-82
2021/06/07 06:52:20;;;;;;;17.30;15.63;;;;;;;;;;5034287;28;20206;-83
2021/06/07 06:54:46;;;;;;;15.38;13.95;;;;;;;;;;5033470;28;20297;-83
2021/06/07 06:57:13;;;;;;;16.80;15.13;;;;;;;;;;5034959;28;20260;-82
2021/06/07 06:59:40;;;;;;;16.98;15.25;;;;;;;;;;5035003;28;20265;-82
2021/06/07 07:02:07;;;;;;;17.10;15.45;;;;;;;;;;5034041;28;20202;-82
2021/06/07 07:04:34;;;;;;;16.95;15.15;;;;;;;;;;5034069;28;20195;-83
2021/06/07 07:07:01;;;;;;;16.88;15.25;;;;;;;;;;5034041;28;20245;-82
2021/06/07 07:09:29;;;;;;;16.90;14.25;;;;;;;;;;5033642;28;20206;-82
2021/06/07 07:11:56;;;;;;;16.27;14.68;;;;;;;;;;5033585;28;20260;-83
2021/06/07 07:14:23;;;;;;;15.40;14.00;;;;;;;;;;5033417;28;20263;-83
2021/06/07 07:16:52;;;;;;;14.88;12.80;;;;;;;;;;5033379;28;20282;-82
2021/06/07 07:19:20;;;;;;;16.13;14.52;;;;;;;;;;5033722;28;20261;-83
2021/06/07 07:21:47;;;;;;;14.70;13.18;;;;;;;;;;5033946;28;20613;-83
2021/06/07 07:24:14;;;;;;;15.80;14.18;;;;;;;;;;5033683;28;20198;-83
2021/06/07 07:26:43;;;;;;;16.75;14.98;;;;;;;;;;5034456;28;20272;-82
2021/06/07 07:29:10;;;;;;;15.32;13.82;;;;;;;;;;5033679;28;20198;-83
2021/06/07 07:31:37;;;;;;;16.08;14.55;;;;;;;;;;5033265;28;20191;-83
2021/06/07 07:34:03;;;;;;;16.15;14.60;;;;;;;;;;5032921;28;20206;-83
2021/06/07 07:36:31;;;;;;;15.80;14.32;;;;;;;;;;5032840;28;20218;-82
2021/06/07 07:38:57;;;;;;;16.25;13.75;;;;;;;;;;5033385;28;20245;-83
2021/06/07 07:41:25;;;;;;;13.93;12.65;;;;;;;;;;5033510;28;20673;-82
2021/06/07 07:43:53;;;;;;;16.25;14.73;;;;;;;;;;5032667;28;20289;-83
2021/06/07 07:46:20;;;;;;;15.70;14.23;;;;;;;;;;5033428;28;20222;-83
2021/06/07 07:48:47;;;;;;;15.52;13.95;;;;;;;;;;5033319;28;20205;-83
2021/06/07 07:51:14;;;;;;;15.23;13.80;;;;;;;;;;5033060;28;20210;-82
2021/06/07 07:53:41;;;;;;;14.38;12.95;;;;;;;;;;5033501;28;20217;-83
2021/06/07 07:56:09;;;;;;;13.60;11.40;;;;;;;;;;5033507;28;20252;-83
2021/06/07 07:58:36;;;;;;;13.38;12.15;;;;;;;;;;5032835;28;20229;-82
2021/06/07 08:01:04;;;;;;;15.93;14.23;;;;;;;;;;5032753;28;20206;-83
2021/06/07 08:03:31;;;;;;;12.50;11.27;;;;;;;;;;5031736;28;20199;-83
2021/06/07 08:06:00;;;;;;;13.55;12.25;;;;;;;;;;5033003;28;20226;-83
2021/06/07 08:08:27;;;;;;;12.73;11.52;;;;;;;;;;5032736;28;20205;-82
2021/06/07 08:10:56;;;;;;;13.40;12.20;;;;;;;;;;5015631;28;20198;-83
2021/06/07 08:13:23;;;;;;;12.32;11.23;;;;;;;;;;5032374;28;20198;-83
2021/06/07 08:15:50;;;;;;;13.27;11.82;;;;;;;;;;5033037;28;20720;-83
2021/06/07 08:18:18;;;;;;;12.38;11.18;;;;;;;;;;5032941;28;20205;-83
2021/06/07 08:20:45;;;;;;;12.68;11.48;;;;;;;;;;5033101;28;20576;-83
2021/06/07 08:23:13;;;;;;;13.95;12.73;;;;;;;;;;5033470;28;20576;-83
2021/06/07 08:25:40;;;;;;;12.73;11.52;;;;;;;;;;5032371;28;20313;-83
2021/06/07 08:28:06;;;;;;;13.82;12.50;;;;;;;;;;5032809;28;20219;-83
2021/06/07 08:30:34;;;;;;;13.23;12.02;;;;;;;;;;5031690;28;20579;-83
2021/06/07 08:33:02;;;;;;;14.57;12.48;;;;;;;;;;5032809;28;20500;-82
2021/06/07 08:35:30;;;;;;;13.43;12.13;;;;;;;;;;5031732;28;20232;-83
2021/06/07 08:37:57;;;;;;;11.68;10.57;;;;;;;;;;5032119;28;20333;-83
2021/06/07 08:40:24;;;;;;;13.73;12.43;;;;;;;;;;5032651;28;20226;-83
2021/06/07 08:42:51;;;;;;;15.07;13.65;;;;;;;;;;5032869;28;20202;-83
2021/06/07 08:45:21;;;;;;;12.70;11.38;;;;;;;;;;5032123;28;20222;-84
2021/06/07 08:47:50;;;;;;;13.40;12.10;;;;;;;;;;5033355;28;20202;-83
2021/06/07 08:50:19;;;;;;;13.70;12.13;;;;;;;;;;5031468;28;20213;-84
2021/06/07 08:52:48;;;;;;;14.05;12.80;;;;;;;;;;5031596;28;20199;-83
2021/06/07 08:55:18;;;;;;;13.38;12.07;;;;;;;;;;5031388;28;20309;-84
2021/06/07 08:57:47;;;;;;;15.55;13.85;;;;;;;;;;5032067;28;20195;-83
2021/06/07 09:00:18;;;;;;;13.18;11.85;;;;;;;;;;5032554;28;20222;-84
2021/06/07 09:02:47;;;;;;;12.90;11.70;;;;;;;;;;5033188;28;20203;-84
2021/06/07 09:05:15;;;;;;;13.63;12.07;;;;;;;;;;5033803;28;20623;-83
2021/06/07 09:07:58;;;;;;;12.63;11.38;;;;;;;;;;5032893;28;20672;-83
2021/06/07 09:10:29;;;;;;;12.07;10.98;;;;;;;;;;5032516;28;20198;-84
2021/06/07 09:13:00;;;;;;;9.88;9.00;;;;;;;;;;5034148;28;20579;-83
2021/06/07 09:15:34;;;;;;;9.77;8.88;;;;;;;;;;5034812;28;20244;-85
2021/06/07 09:18:01;;;;;;;11.10;9.48;;;;;;;;;;5035996;28;20653;-84
2021/06/07 09:20:30;;;;;;;10.82;9.73;;;;;;;;;;5036081;28;20226;-84
2021/06/07 09:23:00;;;;;;;12.23;11.13;;;;;;;;;;5036094;28;20218;-84
2021/06/07 09:25:29;;;;;;;9.45;8.45;;;;;;;;;;5035472;28;20230;-84
2021/06/07 09:28:12;;;;;;;9.73;8.82;;;;;;;;;;5035456;28;20202;-85
2021/06/07 09:30:46;;;;;;;8.18;7.47;;;;;;;;;;5034947;28;20208;-85
2021/06/07 09:33:32;;;;;;;8.77;7.90;;;;;;;;;;5034969;28;20202;-84
2021/06/07 09:36:27;;;;;;;10.63;8.45;;;;;;;;;;5034905;28;20226;-84
2021/06/07 09:39:13;;;;;;;7.35;6.72;;;;;;;;;;5039252;28;20222;-83
2021/06/07 09:41:59;;;;;;;8.07;7.30;;;;;;;;;;5037895;28;20201;-84
2021/06/07 09:44:41;;;;;;;7.97;7.25;;;;;;;;;;5038384;28;20198;-84
2021/06/07 09:47:18;;;;;;;7.90;7.20;;;;;;;;;;5039168;28;20194;-85
2021/06/07 09:49:48;;;;;;;8.20;7.35;;;;;;;;;;5039496;28;20194;-84
2021/06/07 09:52:20;;;;;;;6.60;6.00;;;;;;;;;;5039098;28;20202;-84
2021/06/07 09:55:05;;;;;;;8.20;7.50;;;;;;;;;;5038325;28;20297;-84
2021/06/07 09:57:48;;;;;;;9.30;8.48;;;;;;;;;;5039154;28;20201;-84
2021/06/07 10:00:36;;;;;;;7.55;6.88;;;;;;;;;;5038526;28;20214;-84
2021/06/07 10:03:21;;;;;;;8.50;7.57;;;;;;;;;;5038582;28;20210;-83
2021/06/07 10:05:49;;;;;;;7.55;6.93;;;;;;;;;;5039426;28;20222;-84
2021/06/07 10:08:16;;;;;;;6.70;6.10;;;;;;;;;;5036781;28;20203;-85
2021/06/07 10:10:45;;;;;;;8.68;7.47;;;;;;;;;;5035387;28;20203;-84
2021/06/07 10:13:13;;;;;;;9.70;8.13;;;;;;;;;;5035240;28;20202;-84
2021/06/07 10:15:42;;;;;;;8.73;7.95;;;;;;;;;;5034611;28;20226;-85
2021/06/07 10:18:12;;;;;;;7.78;6.85;;;;;;;;;;5034516;28;20634;-84
2021/06/07 10:20:52;;;;;;;7.70;7.00;;;;;;;;;;5035063;28;20222;-83
2021/06/07 10:23:23;;;;;;;7.57;6.78;;;;;;;;;;5034729;28;20206;-84
2021/06/07 10:25:54;;;;;;;7.25;6.65;;;;;;;;;;5034835;28;20218;-84
2021/06/07 10:28:25;;;;;;;7.25;6.65;;;;;;;;;;5034616;28;20206;-83
2021/06/07 10:30:52;;;;;;;9.43;7.45;;;;;;;;;;5034435;28;20581;-84
2021/06/07 10:33:29;;;;;;;7.47;6.72;;;;;;;;;;5034679;28;20206;-84
2021/06/07 10:35:58;;;;;;;6.97;6.30;;;;;;;;;;5035336;28;20228;-86
2021/06/07 10:38:30;;;;;;;8.00;7.18;;;;;;;;;;5037777;28;20199;-84
2021/06/07 10:41:22;;;;;;;8.38;7.57;;;;;;;;;;5038655;28;20280;-85
2021/06/07 10:43:50;;;;;;;7.97;7.28;;;;;;;;;;5038769;28;20191;-85
2021/06/07 10:46:26;;;;;;;6.20;5.80;;;;;;;;;;5038090;28;20279;-86
2021/06/07 10:48:54;;;;;;;7.57;6.97;;;;;;;;;;5037579;28;20194;-85
2021/06/07 10:51:22;;;;;;;8.48;6.40;;;;;;;;;;5038386;28;20198;-85
2021/06/07 10:53:52;;;;;;;8.50;7.57;;;;;;;;;;5037404;28;20206;-86
2021/06/07 10:56:26;;;;;;;7.97;7.28;;;;;;;;;;5038732;28;20765;-85
2021/06/07 10:58:56;;;;;;;7.18;6.22;;;;;;;;;;5037775;28;20687;-85
2021/06/07 11:01:23;;;;;;;8.82;6.90;;;;;;;;;;5037689;28;20218;-85
2021/06/07 11:03:58;;;;;;;9.18;6.50;;;;;;;;;;5037672;28;20203;-85
2021/06/07 11:06:27;;;;;;;9.57;6.43;;;;;;;;;;5035987;28;20218;-85
2021/06/07 11:09:08;;;;;;;6.35;5.85;;;;;;;;;;5034844;28;20252;-84
2021/06/07 11:11:47;;;;;;;10.25;6.65;;;;;;;;;;5034366;28;20202;-85
2021/06/07 11:14:15;;;;;;;10.48;6.50;;;;;;;;;;5034637;28;20663;-86
2021/06/07 11:16:45;;;;;;;7.13;6.32;;;;;;;;;;5034079;28;20269;-86
2021/06/07 11:19:13;;;;;;;6.90;6.20;;;;;;;;;;5034626;28;20252;-86
2021/06/07 11:21:43;;;;;;;8.23;6.20;;;;;;;;;;5035593;28;20195;-85
2021/06/07 11:24:32;;;;;;;10.98;7.55;;;;;;;;;;5035431;28;20202;-84
2021/06/07 11:27:03;;;;;;;7.90;7.07;;;;;;;;;;5030692;28;20248;-84
2021/06/07 11:29:30;;;;;;;7.65;6.97;;;;;;;;;;5036664;28;20203;-84
2021/06/07 11:32:09;;;;;;;6.97;6.35;;;;;;;;;;5036347;28;20198;-84
2021/06/07 11:34:46;;;;;;;6.38;5.88;;;;;;;;;;5034999;28;20209;-84
2021/06/07 11:37:32;;;;;;;7.13;6.22;;;;;;;;;;5034387;28;20221;-84
2021/06/07 11:39:59;;;;;;;5.90;5.40;;;;;;;;;;5034091;28;20218;-84
2021/06/07 11:42:29;;;;;;;6.07;5.68;;;;;;;;;;5034631;28;20198;-84
2021/06/07 11:45:07;;;;;;;10.27;8.15;;;;;;;;;;5034945;28;20217;-85
2021/06/07 11:47:52;;;;;;;6.43;5.78;;;;;;;;;;5035281;28;20733;-83
2021/06/07 11:50:29;;;;;;;7.07;6.45;;;;;;;;;;5035946;28;20210;-86
2021/06/07 11:52:56;;;;;;;6.70;5.95;;;;;;;;;;5036553;28;20249;-85
2021/06/07 11:55:41;;;;;;;7.97;6.18;;;;;;;;;;5034004;28;20696;-84
2021/06/07 11:58:16;;;;;;;6.65;6.05;;;;;;;;;;5033159;28;20743;-85
2021/06/07 12:00:47;;;;;;;6.55;6.03;;;;;;;;;;5034247;28;20221;-85
2021/06/07 12:03:17;;;;;;;7.43;6.72;;;;;;;;;;5034481;28;20202;-85
2021/06/07 12:05:44;;;;;;;6.53;6.03;;;;;;;;;;5034688;28;20267;-85
2021/06/07 12:08:14;;;;;;;6.50;5.90;;;;;;;;;;5035754;28;20190;-85
2021/06/07 12:10:43;;;;;;;6.65;5.53;;;;;;;;;;5035133;28;20268;-86
2021/06/07 12:13:17;;;;;;;6.75;5.95;;;;;;;;;;5033359;28;20485;-85
2021/06/07 12:15:48;;;;;;;6.03;5.57;;;;;;;;;;5033903;28;20234;-85
2021/06/07 12:18:34;;;;;;;6.03;5.43;;;;;;;;;;5034065;28;20198;-85
2021/06/07 12:21:04;;;;;;;6.20;4.25;;;;;;;;;;5034139;28;20326;-85
2021/06/07 12:23:35;;;;;;;6.60;5.68;;;;;;;;;;5033913;28;20211;-84
2021/06/07 12:29:30;;;;;;;5.50;4.80;;;;;;;;;;5034087;28;20225;-86
2021/06/07 12:32:16;;;;;;;5.93;5.40;;;;;;;;;;5034178;28;20668;-85
2021/06/07 12:35:11;;;;;;;5.75;5.32;;;;;;;;;;5033328;28;20630;-86
2021/06/07 12:37:41;;;;;;;5.60;5.20;;;;;;;;;;5033356;28;20202;-86
2021/06/07 12:40:34;;;;;;;7.07;6.28;;;;;;;;;;5033668;28;20226;-86
2021/06/07 12:43:17;;;;;;;5.97;4.80;;;;;;;;;;5033824;28;20210;-85
2021/06/07 12:45:49;;;;;;;4.93;4.53;;;;;;;;;;5033788;28;20226;-86
2021/06/07 12:48:20;;;;;;;4.40;4.07;;;;;;;;;;5034096;28;20199;-86
2021/06/07 12:50:50;;;;;;;5.28;4.78;;;;;;;;;;5033657;28;20194;-86
2021/06/07 12:53:18;;;;;;;4.57;4.28;;;;;;;;;;5033515;28;20205;-86
2021/06/07 12:55:47;;;;;;;4.38;4.07;;;;;;;;;;5034043;28;20225;-85
2021/06/07 12:58:17;;;;;;;6.72;6.13;;;;;;;;;;5033676;28;20210;-85
2021/06/07 13:00:49;;;;;;;7.05;6.28;;;;;;;;;;5033867;28;20787;-85
2021/06/07 13:03:26;;;;;;;7.63;7.03;;;;;;;;;;5033691;28;20207;-86
2021/06/07 13:06:08;;;;;;;6.63;6.07;;;;;;;;;;5033353;28;20249;-86
2021/06/07 13:08:36;;;;;;;8.57;7.78;;;;;;;;;;5033220;28;20198;-85
2021/06/07 13:11:06;;;;;;;9.18;7.57;;;;;;;;;;5037197;28;20668;-85
2021/06/07 13:13:36;;;;;;;8.00;7.30;;;;;;;;;;5039471;28;20238;-85
2021/06/07 13:16:11;;;;;;;7.05;6.38;;;;;;;;;;5040002;28;20283;-86
2021/06/07 13:18:56;;;;;;;6.90;6.28;;;;;;;;;;5040521;28;20255;-86
2021/06/07 13:21:45;;;;;;;7.07;6.47;;;;;;;;;;5040279;28;20218;-85
2021/06/07 13:24:16;;;;;;;6.85;6.25;;;;;;;;;;5040304;28;20209;-85
2021/06/07 13:26:47;;;;;;;7.63;6.80;;;;;;;;;;5040227;28;20635;-85
2021/06/07 13:29:22;;;;;;;6.47;5.72;;;;;;;;;;5040716;28;20243;-85
2021/06/07 13:31:57;;;;;;;7.18;6.50;;;;;;;;;;5039732;28;20194;-85
2021/06/07 13:34:29;;;;;;;5.82;5.30;;;;;;;;;;5040559;28;20275;-85
2021/06/07 13:37:13;;;;;;;6.93;6.22;;;;;;;;;;5041281;28;20226;-86
2021/06/07 13:39:42;;;;;;;4.80;4.50;;;;;;;;;;5041226;28;20204;-86
2021/06/07 13:42:10;;;;;;;7.90;7.18;;;;;;;;;;5039853;28;20312;-85
2021/06/07 13:44:52;;;;;;;7.32;6.00;;;;;;;;;;5040439;28;20222;-86
2021/06/07 13:47:23;;;;;;;6.85;6.35;;;;;;;;;;5040641;28;20208;-86
2021/06/07 13:50:04;;;;;;;6.55;5.90;;;;;;;;;;5040296;28;20202;-85
2021/06/07 13:52:53;;;;;;;5.82;4.88;;;;;;;;;;5039803;28;20202;-86
2021/06/07 13:55:31;;;;;;;5.80;5.30;;;;;;;;;;5039970;28;20226;-86
2021/06/07 13:58:04;;;;;;;6.30;5.72;;;;;;;;;;5041522;28;20198;-87
2021/06/07 14:00:33;;;;;;;6.38;5.88;;;;;;;;;;5039632;28;20283;-85
2021/06/07 14:03:02;;;;;;;6.75;6.25;;;;;;;;;;5039864;28;20610;-86
2021/06/07 14:05:30;;;;;;;6.05;5.55;;;;;;;;;;5039305;28;20226;-86
2021/06/07 14:07:57;;;;;;;5.45;5.05;;;;;;;;;;5040203;28;20202;-85
2021/06/07 14:10:25;;;;;;;6.72;4.55;;;;;;;;;;5040186;28;20680;-85
2021/06/07 14:12:53;;;;;;;6.05;5.55;;;;;;;;;;5040881;28;20205;-86
2021/06/07 14:15:20;;;;;;;6.55;6.05;;;;;;;;;;5039927;28;20233;-84
2021/06/07 14:17:48;;;;;;;6.95;5.90;;;;;;;;;;5041157;28;20190;-84
2021/06/07 14:20:17;;;;;;;5.78;5.07;;;;;;;;;;5040409;28;20252;-84
2021/06/07 14:25:36;;;;;;;6.03;5.45;;;;;;;;;;5036851;28;20714;-83
2021/06/07 14:28:06;;;;;;;5.70;5.20;;;;;;;;;;5037566;28;20190;-83
2021/06/07 14:30:33;;;;;;;6.10;5.60;;;;;;;;;;5037180;28;20190;-84
2021/06/07 14:33:00;;;;;;;6.60;5.95;;;;;;;;;;5038848;28;20179;-84
2021/06/07 14:35:31;;;;;;;5.60;5.10;;;;;;;;;;5037799;28;20648;-84
2021/06/07 14:38:00;;;;;;;5.55;5.03;;;;;;;;;;5037791;28;20252;-84
2021/06/07 14:40:28;;;;;;;6.38;5.68;;;;;;;;;;5037914;28;20183;-84
2021/06/07 14:42:55;;;;;;;6.13;5.63;;;;;;;;;;5038925;28;20210;-85
2021/06/07 14:45:22;;;;;;;5.18;4.75;;;;;;;;;;5038625;28;20218;-85
2021/06/07 14:47:49;;;;;;;6.15;5.65;;;;;;;;;;5039498;28;20187;-86
2021/06/07 14:50:16;;;;;;;5.97;5.45;;;;;;;;;;5038365;28;20203;-86